KTOR/TOR METAR and TAF weather

Enter ICAO airport designator
Station Type Date Time Source
KTOR METAR 2020/03/29 20:53 UTC NOAA

KTOR 292053Z AUTO 26005KT 10SM BKN090 12/M07 A2999 RMK AO2 SLP160 T01221072 56014


Station Type Date Time Source
KTOR Decoded METAR 2020/03/29 20:53 UTC NOAA

TORRINGTON MUNICIPAL AIRPORT, WY, United States (KTOR) 42-03N 104-09W 1277M
Mar 29, 2020 - 04:53 PM EDT / 2020.03.29 2053 UTC
Wind: from the W (260 degrees) at 6 MPH (5 KT):0
Visibility: 10 mile(s):0
Sky conditions: mostly cloudy
Temperature: 54.0 F (12.2 C)
Dew Point: 19.0 F (-7.2 C)
Relative Humidity: 25%
Pressure (altimeter): 29.99 in. Hg (1015 hPa)
Pressure tendency: 0.04 inches (1.4 hPa) lower than three hours ago
ob: KTOR 292053Z AUTO 26005KT 10SM BKN090 12/M07 A2999 RMK AO2 SLP160 T01221072 56014
cycle: 21

Station Type Date Time Source
KTOR TAF UTC NOAA

Error!

Example: see airport list